createdAt,value
2022-11-22T00:01:05.712Z,90.11
2022-11-22T00:03:37.678Z,89.86
2022-11-22T00:06:09.648Z,89.57
2022-11-22T00:08:41.680Z,89.18
2022-11-22T00:11:13.624Z,89.82
2022-11-22T00:13:45.555Z,89.35
2022-11-22T00:16:17.579Z,89.48
2022-11-22T00:18:49.507Z,89.70
2022-11-22T00:21:21.477Z,89.91
2022-11-22T00:23:59.475Z,90.39
2022-11-22T00:26:31.448Z,90.09
2022-11-22T00:29:03.528Z,89.88
2022-11-22T00:31:35.609Z,90.30
2022-11-22T00:34:07.656Z,90.09
2022-11-22T00:36:39.607Z,89.46
2022-11-22T00:39:11.524Z,89.97
2022-11-22T00:41:43.481Z,89.50
2022-11-22T00:44:15.421Z,89.44
2022-11-22T00:46:47.405Z,89.67
2022-11-22T00:49:19.325Z,89.01
2022-11-22T00:51:51.385Z,89.08
2022-11-22T00:54:23.392Z,89.72
2022-11-22T00:56:55.359Z,88.61
2022-11-22T00:59:27.577Z,89.16
2022-11-22T01:01:59.689Z,89.18
2022-11-22T01:04:31.716Z,89.37
2022-11-22T01:07:03.936Z,89.70
2022-11-22T01:09:36.094Z,89.94
2022-11-22T01:12:08.259Z,89.29
2022-11-22T01:14:40.201Z,89.31
2022-11-22T01:17:12.194Z,88.81
2022-11-22T01:19:44.160Z,89.04
2022-11-22T01:22:16.355Z,89.09
2022-11-22T01:24:48.404Z,88.82
2022-11-22T01:27:20.433Z,89.07
2022-11-22T01:29:52.535Z,90.02
2022-11-22T01:32:24.614Z,90.22
2022-11-22T01:34:56.664Z,90.37
2022-11-22T01:37:28.649Z,91.59
2022-11-22T01:40:00.630Z,91.53
2022-11-22T01:42:54.698Z,90.76
2022-11-22T01:45:41.758Z,90.96
2022-11-22T01:48:13.636Z,90.52
2022-11-22T01:50:50.207Z,90.21
2022-11-22T01:53:34.424Z,91.45
2022-11-22T01:56:11.520Z,92.01
2022-11-22T01:58:48.442Z,91.98
2022-11-22T02:01:20.848Z,92.01
2022-11-22T02:03:56.109Z,92.25
2022-11-22T02:06:43.613Z,92.71
2022-11-22T02:09:17.081Z,93.39
2022-11-22T02:11:52.592Z,93.18
2022-11-22T02:14:27.361Z,93.72
2022-11-22T02:16:59.457Z,93.56
2022-11-22T02:19:48.211Z,93.70
2022-11-22T02:23:10.505Z,93.32
2022-11-22T02:25:42.458Z,92.97
2022-11-22T02:28:14.519Z,92.68
2022-11-22T02:30:46.605Z,93.00
2022-11-22T02:33:18.876Z,92.79
2022-11-22T02:35:50.928Z,92.82
2022-11-22T02:38:31.756Z,93.62
2022-11-22T02:41:09.429Z,93.54
2022-11-22T02:43:47.527Z,93.80
2022-11-22T02:46:21.895Z,94.09
2022-11-22T02:48:53.928Z,93.65
2022-11-22T02:51:26.625Z,94.47
2022-11-22T02:53:58.562Z,94.74
2022-11-22T02:56:30.551Z,94.73
2022-11-22T02:59:02.532Z,95.61
2022-11-22T03:01:35.353Z,96.11
2022-11-22T03:04:07.431Z,97.53
2022-11-22T03:06:39.387Z,97.23
2022-11-22T03:09:11.329Z,97.48
2022-11-22T03:11:43.657Z,98.41
2022-11-22T03:14:16.128Z,99.10
2022-11-22T03:16:48.484Z,98.75
2022-11-22T03:19:20.636Z,99.42
2022-11-22T03:21:52.695Z,99.53
2022-11-22T03:24:24.635Z,99.08
2022-11-22T03:26:56.737Z,98.64
2022-11-22T03:29:28.996Z,98.90
2022-11-22T03:32:01.171Z,99.58
2022-11-22T03:34:33.103Z,99.86
2022-11-22T03:37:05.086Z,100.00
2022-11-22T03:39:37.020Z,99.99
2022-11-22T03:42:08.979Z,100.00
2022-11-22T03:44:41.026Z,100.00
2022-11-22T03:47:13.097Z,99.81
2022-11-22T03:49:45.213Z,100.00
2022-11-22T03:52:17.262Z,100.00
2022-11-22T03:54:49.261Z,100.00
2022-11-22T03:57:21.254Z,100.00
2022-11-22T03:59:53.224Z,100.00
2022-11-22T04:02:25.185Z,100.00
2022-11-22T04:04:57.142Z,100.00
2022-11-22T04:07:29.170Z,100.00
2022-11-22T04:10:01.196Z,100.00
2022-11-22T04:12:33.481Z,100.00
2022-11-22T04:15:08.947Z,100.00
2022-11-22T04:17:48.173Z,100.00
2022-11-22T04:20:48.275Z,100.00
2022-11-22T04:23:23.845Z,100.00
2022-11-22T04:25:56.275Z,100.00
2022-11-22T04:28:47.083Z,100.00
2022-11-22T04:31:38.641Z,100.00
2022-11-22T04:34:10.608Z,100.00
2022-11-22T04:36:42.556Z,100.00
2022-11-22T04:39:14.484Z,100.00
2022-11-22T04:41:46.530Z,100.00
2022-11-22T04:44:37.193Z,100.00
2022-11-22T04:47:35.949Z,100.00
2022-11-22T04:50:29.080Z,100.00
2022-11-22T04:53:01.141Z,100.00
2022-11-22T04:55:33.091Z,100.00
2022-11-22T04:58:05.183Z,100.00
2022-11-22T05:00:37.502Z,100.00
2022-11-22T05:03:09.793Z,100.00
2022-11-22T05:05:44.567Z,100.00
2022-11-22T05:08:16.567Z,100.00
2022-11-22T05:10:58.349Z,100.00
2022-11-22T05:13:36.184Z,100.00
2022-11-22T05:16:12.157Z,100.00
2022-11-22T05:18:44.194Z,100.00
2022-11-22T05:21:16.172Z,100.00
2022-11-22T05:23:56.864Z,100.00
2022-11-22T05:26:35.460Z,100.00
2022-11-22T05:29:10.472Z,100.00
2022-11-22T05:31:48.259Z,100.00
2022-11-22T05:34:23.064Z,100.00
2022-11-22T05:36:55.151Z,100.00
2022-11-22T05:39:27.321Z,100.00
2022-11-22T05:41:59.517Z,100.00
2022-11-22T05:44:31.797Z,100.00
2022-11-22T05:47:03.951Z,100.00
2022-11-22T05:49:36.212Z,100.00
2022-11-22T05:52:08.887Z,100.00
2022-11-22T05:54:40.841Z,100.00
2022-11-22T05:57:12.835Z,100.00
2022-11-22T05:59:44.755Z,100.00
2022-11-22T06:02:16.814Z,100.00
2022-11-22T06:04:48.817Z,100.00
2022-11-22T06:07:20.913Z,100.00
2022-11-22T06:09:52.928Z,100.00
2022-11-22T06:12:24.860Z,100.00
2022-11-22T06:14:56.873Z,100.00
2022-11-22T06:17:28.820Z,100.00
2022-11-22T06:20:05.880Z,100.00
2022-11-22T06:22:38.582Z,100.00
2022-11-22T06:25:10.710Z,100.00
2022-11-22T06:27:42.650Z,100.00
2022-11-22T06:30:15.241Z,100.00
2022-11-22T06:32:47.223Z,100.00
2022-11-22T06:35:19.181Z,100.00
2022-11-22T06:37:54.897Z,100.00
2022-11-22T06:40:29.615Z,100.00
2022-11-22T06:43:01.594Z,100.00
2022-11-22T06:45:33.523Z,100.00
2022-11-22T06:48:06.153Z,100.00
2022-11-22T06:50:38.096Z,100.00
2022-11-22T06:53:21.328Z,100.00
2022-11-22T06:56:18.621Z,100.00
2022-11-22T06:58:52.292Z,100.00
2022-11-22T07:01:29.525Z,100.00
2022-11-22T07:04:02.169Z,100.00
2022-11-22T07:06:38.658Z,100.00
2022-11-22T07:09:11.987Z,100.00
2022-11-22T07:11:44.034Z,100.00
2022-11-22T07:14:16.010Z,100.00
2022-11-22T07:16:47.952Z,100.00
2022-11-22T07:19:19.894Z,100.00
2022-11-22T07:21:51.805Z,100.00
2022-11-22T07:24:23.757Z,100.00
2022-11-22T07:26:55.778Z,100.00
2022-11-22T07:29:27.941Z,100.00
2022-11-22T07:32:00.114Z,100.00
2022-11-22T07:34:32.093Z,100.00
2022-11-22T07:37:08.915Z,100.00
2022-11-22T07:39:41.190Z,100.00
2022-11-22T07:42:13.256Z,100.00
2022-11-22T07:44:45.213Z,100.00
2022-11-22T07:47:22.590Z,100.00
2022-11-22T07:49:54.984Z,100.00
2022-11-22T07:52:26.939Z,100.00
2022-11-22T07:54:58.935Z,100.00
2022-11-22T07:57:32.446Z,100.00
2022-11-22T08:00:06.268Z,100.00
2022-11-22T08:02:38.872Z,100.00
2022-11-22T08:05:11.095Z,100.00
2022-11-22T08:07:51.732Z,100.00
2022-11-22T08:10:24.381Z,100.00
2022-11-22T08:13:00.277Z,100.00
2022-11-22T08:15:32.780Z,100.00
2022-11-22T08:18:04.804Z,100.00
2022-11-22T08:20:36.782Z,100.00
2022-11-22T08:23:08.713Z,100.00
2022-11-22T08:25:40.691Z,100.00
2022-11-22T08:28:12.660Z,100.00
2022-11-22T08:30:44.597Z,100.00
2022-11-22T08:33:16.578Z,100.00
2022-11-22T08:35:50.797Z,100.00
2022-11-22T08:38:22.968Z,100.00
2022-11-22T08:40:55.272Z,100.00
2022-11-22T08:43:27.194Z,100.00
2022-11-22T08:46:02.089Z,100.00
2022-11-22T08:48:37.131Z,100.00
2022-11-22T08:51:14.985Z,100.00
2022-11-22T08:53:47.222Z,100.00
2022-11-22T08:56:19.156Z,100.00
2022-11-22T08:58:51.181Z,100.00
2022-11-22T09:01:23.691Z,100.00
2022-11-22T09:03:55.705Z,100.00
2022-11-22T09:09:36.781Z,100.00
2022-11-22T09:12:11.612Z,100.00
2022-11-22T09:14:43.665Z,100.00
2022-11-22T09:17:18.033Z,100.00
2022-11-22T09:19:50.376Z,100.00
2022-11-22T09:22:28.094Z,100.00
2022-11-22T09:25:00.756Z,100.00
2022-11-22T09:27:36.115Z,100.00
2022-11-22T09:30:08.791Z,100.00
2022-11-22T09:32:43.765Z,100.00
2022-11-22T09:35:17.364Z,100.00
2022-11-22T09:37:49.324Z,100.00
2022-11-22T09:40:21.421Z,100.00
2022-11-22T09:43:39.897Z,100.00
2022-11-22T09:46:25.973Z,100.00
2022-11-22T09:49:38.445Z,100.00
2022-11-22T09:52:19.624Z,100.00
2022-11-22T09:55:05.026Z,100.00
2022-11-22T09:58:10.209Z,100.00
2022-11-22T10:00:47.756Z,100.00
2022-11-22T10:04:06.066Z,99.94
2022-11-22T10:06:43.036Z,99.75
2022-11-22T10:09:33.430Z,99.76
2022-11-22T10:12:21.076Z,99.09
2022-11-22T10:15:24.642Z,98.57
2022-11-22T10:18:24.588Z,97.15
2022-11-22T10:20:56.569Z,96.63
2022-11-22T10:23:28.988Z,96.89
2022-11-22T10:26:19.547Z,96.10
2022-11-22T10:29:42.557Z,96.38
2022-11-22T10:32:35.267Z,96.05
2022-11-22T10:35:59.494Z,94.43
2022-11-22T10:38:58.438Z,93.99
2022-11-22T10:41:39.794Z,91.86
2022-11-22T10:44:52.209Z,91.85
2022-11-22T10:47:44.918Z,91.86
2022-11-22T10:50:32.289Z,90.72
2022-11-22T10:53:29.104Z,91.00
2022-11-22T10:56:35.336Z,91.96
2022-11-22T10:59:37.904Z,93.38
2022-11-22T11:03:06.508Z,93.21
2022-11-22T11:12:17.502Z,93.28
2022-11-22T11:14:56.226Z,92.24
2022-11-22T11:17:37.440Z,92.16
2022-11-22T11:20:33.541Z,92.58
2022-11-22T11:23:20.980Z,92.48
2022-11-22T11:25:53.242Z,91.70
2022-11-22T11:28:30.140Z,90.60
2022-11-22T11:31:11.731Z,92.06
2022-11-22T11:33:43.769Z,92.57
2022-11-22T11:36:23.380Z,92.98
2022-11-22T11:38:58.236Z,92.60
2022-11-22T11:41:34.465Z,91.79
2022-11-22T11:44:29.361Z,92.42
2022-11-22T11:47:02.952Z,92.07
2022-11-22T11:49:40.616Z,91.14
2022-11-22T11:52:23.952Z,91.02
2022-11-22T11:54:59.605Z,90.80
2022-11-22T11:57:35.584Z,91.63
2022-11-22T12:00:22.420Z,91.54
2022-11-22T12:03:01.024Z,91.86
2022-11-22T12:05:34.645Z,91.41
2022-11-22T12:08:31.675Z,90.99
2022-11-22T12:11:10.215Z,91.90
2022-11-22T12:14:19.041Z,91.69
2022-11-22T12:16:54.714Z,91.42
2022-11-22T12:19:58.169Z,91.17
2022-11-22T12:23:21.806Z,91.25
2022-11-22T12:25:57.311Z,91.39
2022-11-22T12:28:29.727Z,91.62
2022-11-22T12:31:13.599Z,91.80
2022-11-22T12:33:54.846Z,91.73
2022-11-22T12:36:45.111Z,90.90
2022-11-22T12:39:26.324Z,91.48
2022-11-22T12:42:12.120Z,91.58
2022-11-22T12:44:52.265Z,91.63
2022-11-22T12:47:31.669Z,91.88
2022-11-22T12:50:18.826Z,92.41
2022-11-22T12:53:31.294Z,92.33
2022-11-22T12:56:33.590Z,91.71
2022-11-22T12:59:24.407Z,92.26
2022-11-22T13:02:10.998Z,92.59
2022-11-22T13:05:23.550Z,92.50
2022-11-22T13:08:29.063Z,92.48
2022-11-22T13:11:19.274Z,93.09
2022-11-22T13:13:58.239Z,92.74
2022-11-22T13:16:30.345Z,93.19
2022-11-22T13:19:05.512Z,92.82
2022-11-22T13:22:02.485Z,92.38
2022-11-22T13:25:02.085Z,92.24
2022-11-22T13:27:46.524Z,92.79
2022-11-22T13:30:28.046Z,92.93
2022-11-22T13:33:01.322Z,92.50
2022-11-22T13:35:38.166Z,93.28
2022-11-22T13:38:18.216Z,93.16
2022-11-22T13:40:51.373Z,93.39
2022-11-22T13:43:50.629Z,93.63
2022-11-22T13:47:23.883Z,93.97
2022-11-22T13:49:55.878Z,94.04
2022-11-22T13:52:49.793Z,93.25
2022-11-22T13:55:40.455Z,93.27
2022-11-22T13:58:26.312Z,93.67
2022-11-22T14:01:00.008Z,94.28
2022-11-22T14:03:36.349Z,94.47
2022-11-22T14:06:30.720Z,94.72
2022-11-22T14:09:44.290Z,93.92
2022-11-22T14:12:53.423Z,94.43
2022-11-22T14:15:57.610Z,94.61
2022-11-22T14:18:52.880Z,94.64
2022-11-22T14:22:01.805Z,94.54
2022-11-22T14:25:24.331Z,95.20
2022-11-22T14:28:23.712Z,95.13
2022-11-22T14:30:57.838Z,95.44
2022-11-22T14:33:29.948Z,95.76
2022-11-22T14:36:08.058Z,95.80
2022-11-22T14:38:44.446Z,96.04
2022-11-22T14:41:28.395Z,96.48
2022-11-22T14:44:11.524Z,96.60
2022-11-22T14:47:07.688Z,96.79
2022-11-22T14:49:48.583Z,96.96
2022-11-22T14:52:24.709Z,97.01
2022-11-22T14:55:06.093Z,97.22
2022-11-22T14:57:38.724Z,97.17
2022-11-22T15:00:24.391Z,97.44
2022-11-22T15:03:42.877Z,97.50
2022-11-22T15:09:19.186Z,97.62
2022-11-22T15:10:25.551Z,97.69
2022-11-22T15:13:23.312Z,97.83
2022-11-22T15:57:54.420Z,96.79
2022-11-22T16:00:29.352Z,96.25
2022-11-22T16:03:03.002Z,95.81
2022-11-22T16:06:06.677Z,95.69
2022-11-22T16:08:32.824Z,95.74
2022-11-22T16:11:05.937Z,95.92
2022-11-22T16:13:38.515Z,96.25
2022-11-22T16:16:13.484Z,96.38
2022-11-22T16:18:48.358Z,96.42
2022-11-22T16:21:29.069Z,96.55
2022-11-22T16:24:19.692Z,96.39
2022-11-22T16:27:00.609Z,96.20
2022-11-22T16:29:37.040Z,95.85
2022-11-22T16:32:16.493Z,96.51
2022-11-22T16:34:51.602Z,96.06
2022-11-22T16:37:37.857Z,95.99
2022-11-22T16:40:16.308Z,96.32
2022-11-22T16:42:48.326Z,95.89
2022-11-22T16:45:24.066Z,96.10
2022-11-22T16:48:16.527Z,96.02
2022-11-22T16:51:06.149Z,96.22
2022-11-22T16:53:45.696Z,95.73
2022-11-22T16:56:28.370Z,95.65
2022-11-22T16:59:00.554Z,95.49
2022-11-22T17:01:34.384Z,95.85
2022-11-22T17:04:06.449Z,96.50
2022-11-22T17:06:38.493Z,96.09
2022-11-22T17:09:10.557Z,95.91
2022-11-22T17:11:44.403Z,95.77
2022-11-22T17:14:18.558Z,95.93
2022-11-22T17:16:50.588Z,95.88
2022-11-22T17:19:52.820Z,95.78
2022-11-22T17:22:17.034Z,95.42
2022-11-22T17:24:49.027Z,95.76
2022-11-22T17:27:21.060Z,95.46
2022-11-22T17:29:53.072Z,95.37
2022-11-22T17:32:25.017Z,95.05
2022-11-22T17:34:57.016Z,94.80
2022-11-22T17:37:29.820Z,94.92
2022-11-22T17:40:02.419Z,95.27
2022-11-22T17:42:40.780Z,95.82
2022-11-22T17:45:13.476Z,95.85
2022-11-22T17:47:45.620Z,95.78
2022-11-22T17:50:17.698Z,95.83
2022-11-22T17:52:52.072Z,96.17
2022-11-22T17:55:26.364Z,96.16
2022-11-22T17:58:01.130Z,96.39
2022-11-22T18:00:33.126Z,96.21
2022-11-22T18:03:08.241Z,96.20
2022-11-22T18:05:40.487Z,96.76
2022-11-22T18:08:12.435Z,96.38
2022-11-22T18:10:44.428Z,96.59
2022-11-22T18:13:23.600Z,95.96
2022-11-22T18:16:03.444Z,96.05
2022-11-22T18:18:56.263Z,95.79
2022-11-22T18:21:31.104Z,95.86
2022-11-22T18:24:03.329Z,95.61
2022-11-22T18:26:40.387Z,95.59
2022-11-22T18:32:06.024Z,95.72
2022-11-22T18:34:37.981Z,95.73
2022-11-22T18:37:10.157Z,96.70
2022-11-22T18:39:42.121Z,96.20
2022-11-22T18:42:16.258Z,96.41
2022-11-22T18:44:48.213Z,96.46
2022-11-22T18:47:20.241Z,96.33
2022-11-22T18:49:52.293Z,96.01
2022-11-22T18:52:24.745Z,96.60
2022-11-22T18:54:56.664Z,96.61
2022-11-22T18:57:29.123Z,97.04
2022-11-22T19:00:01.133Z,97.66
2022-11-22T19:02:33.852Z,97.66
2022-11-22T19:05:06.143Z,98.07
2022-11-22T19:07:39.480Z,98.29
2022-11-22T19:10:11.550Z,98.05
2022-11-22T19:12:43.749Z,97.36
2022-11-22T19:15:16.723Z,97.40
2022-11-22T19:17:48.705Z,98.00
2022-11-22T19:20:47.268Z,98.46
2022-11-22T19:23:12.926Z,98.56
2022-11-22T19:25:44.903Z,98.48
2022-11-22T19:28:16.885Z,98.32
2022-11-22T19:30:48.913Z,98.20
2022-11-22T19:33:20.993Z,98.45
2022-11-22T19:36:01.984Z,98.49
2022-11-22T19:38:34.055Z,98.63
2022-11-22T19:41:10.947Z,99.21
2022-11-22T19:43:43.972Z,98.68
2022-11-22T19:46:16.395Z,99.26
2022-11-22T19:48:56.426Z,99.30
2022-11-22T19:51:30.940Z,99.21
2022-11-22T19:54:03.941Z,98.86
2022-11-22T19:56:38.413Z,98.47
2022-11-22T19:59:15.703Z,98.44
2022-11-22T20:01:47.765Z,97.98
2022-11-22T20:04:19.912Z,98.05
2022-11-22T20:06:51.935Z,97.98
2022-11-22T20:09:24.157Z,97.77
2022-11-22T20:11:56.234Z,97.57
2022-11-22T20:14:28.469Z,97.75
2022-11-22T20:17:00.703Z,98.12
2022-11-22T20:19:34.466Z,98.11
2022-11-22T20:22:06.782Z,97.93
2022-11-22T20:24:38.890Z,97.31
2022-11-22T20:27:11.223Z,98.17
2022-11-22T20:29:43.592Z,97.92
2022-11-22T20:32:15.606Z,97.89
2022-11-22T20:34:47.634Z,97.46
2022-11-22T20:37:19.633Z,97.49
2022-11-22T20:39:51.602Z,97.25
2022-11-22T20:42:34.193Z,97.43
2022-11-22T20:45:08.730Z,96.69
2022-11-22T20:47:40.869Z,96.30
2022-11-22T20:50:13.040Z,96.13
2022-11-22T20:52:44.974Z,95.91
2022-11-22T20:55:16.946Z,96.16
2022-11-22T20:57:48.925Z,96.00
2022-11-22T21:00:21.010Z,95.63
2022-11-22T21:02:52.954Z,95.55
2022-11-22T21:05:25.008Z,95.58
2022-11-22T21:08:00.019Z,95.59
2022-11-22T21:10:34.488Z,95.11
2022-11-22T21:13:06.588Z,94.39
2022-11-22T21:15:38.741Z,94.38
2022-11-22T21:18:27.132Z,94.53
2022-11-22T21:21:11.809Z,94.89
2022-11-22T21:23:44.010Z,95.00
2022-11-22T21:26:16.004Z,94.39
2022-11-22T21:28:48.106Z,94.30
2022-11-22T21:31:21.852Z,93.79
2022-11-22T21:33:54.024Z,93.68
2022-11-22T21:36:26.407Z,94.08
2022-11-22T21:38:58.509Z,93.81
2022-11-22T21:41:45.865Z,94.25
2022-11-22T21:44:17.942Z,94.29
2022-11-22T21:46:51.071Z,93.94
2022-11-22T21:49:23.012Z,93.76
2022-11-22T21:51:55.742Z,94.08
2022-11-22T21:54:27.760Z,93.88
2022-11-22T21:57:02.969Z,93.87
2022-11-22T21:59:35.824Z,93.58
2022-11-22T22:02:08.516Z,93.23
2022-11-22T22:04:40.512Z,93.34
2022-11-22T22:07:29.542Z,93.24
2022-11-22T22:10:05.737Z,93.33
2022-11-22T22:12:39.618Z,93.23
2022-11-22T22:15:13.250Z,93.31
2022-11-22T22:17:45.556Z,93.16
2022-11-22T22:20:17.623Z,93.42
2022-11-22T22:22:50.161Z,93.59
2022-11-22T22:25:22.207Z,93.71
2022-11-22T22:27:57.207Z,93.92
2022-11-22T22:30:29.276Z,93.73
2022-11-22T22:33:01.222Z,93.94
2022-11-22T22:35:33.203Z,93.74
2022-11-22T22:38:05.161Z,93.43
2022-11-22T22:40:37.108Z,93.08
2022-11-22T22:43:09.154Z,93.39
2022-11-22T22:45:41.129Z,93.11
2022-11-22T22:48:13.204Z,93.50
2022-11-22T22:50:45.808Z,93.23
2022-11-22T22:53:17.760Z,92.99
2022-11-22T22:55:55.985Z,93.23
2022-11-22T22:58:28.397Z,93.50
2022-11-22T23:01:21.958Z,92.60
2022-11-22T23:04:06.083Z,92.59
2022-11-22T23:06:39.854Z,92.51
2022-11-22T23:09:12.500Z,92.92
2022-11-22T23:12:02.840Z,92.89
2022-11-22T23:14:34.810Z,92.42
2022-11-22T23:17:08.755Z,92.57
2022-11-22T23:19:40.702Z,92.62
2022-11-22T23:22:12.616Z,92.77
2022-11-22T23:24:44.801Z,92.28
2022-11-22T23:27:16.766Z,92.55
2022-11-22T23:29:48.716Z,92.55
2022-11-22T23:32:20.802Z,92.60
2022-11-22T23:34:52.767Z,92.86
2022-11-22T23:37:24.792Z,92.80
2022-11-22T23:39:56.747Z,92.68
2022-11-22T23:42:29.260Z,92.19
2022-11-22T23:45:01.226Z,92.15
2022-11-22T23:47:33.151Z,91.72
2022-11-22T23:50:05.661Z,91.90
2022-11-22T23:52:37.595Z,91.57
2022-11-22T23:55:09.823Z,91.69
2022-11-22T23:57:42.063Z,91.90
